Res La Ceiba, Puerto Rico
Current Conditions -  °F | °C
As of 10:53 AM on Thursday 23 Oct 2014 (Local Time) from TJNR Reporting Station
Few Clouds Few Clouds  
Wind Chill: 87°   Ceiling: Unl
Heat Index: 97°   Visibility: 10mi
Dew Point: 76°   Wind: 13mph
Humidity: 69%   Direction: 100°E
Pressure: 29.98"   Gusts: NA
Location:  18.2667°N, 65.6476°W
Report Text: TJNR 231453Z AUTO 10011KT 10SM FEW026 31/24 A2998 RMK AO2 SLP152 T03060244 50003
Loading
Personal Weather Stations






























Interactive Weather Map
Tropical Storm Tracking
New forecast layout! Learn more

10-Day Weather Forecast

Advertisements
Track Severe Weather on mobile